Time;durP1;ratioP1;P1;durP2;ratioP2;P2;SDS_P1;SDS_P2;PMS_P1;PMS_P2;Temp;Humidity;BMP_temperature;BMP_pressure;BME280_temperature;BME280_humidity;BME280_pressure;Samples;Min_cycle;Max_cycle;Signal;HPM_P1;HPM_P2
2023/10/30 00:00:14;;;;;;;8.83;2.30;;;12.50;88.10;;;;;;814168;174;26387;-85
2023/10/30 00:02:41;;;;;;;11.63;2.70;;;12.50;87.40;;;;;;815484;173;26438;-86
2023/10/30 00:32:46;;;;;;;7.40;2.57;;;12.90;86.50;;;;;;737238;175;27080;-86
2023/10/30 00:35:13;;;;;;;8.63;2.23;;;12.90;86.30;;;;;;775088;184;26529;-86
2023/10/30 00:37:40;;;;;;;6.87;2.40;;;12.90;86.50;;;;;;773581;184;26480;-89
2023/10/30 00:40:07;;;;;;;10.60;2.80;;;12.90;87.20;;;;;;772717;184;26485;-87
2023/10/30 00:42:33;;;;;;;8.23;3.07;;;12.90;86.70;;;;;;771392;184;26482;-86
2023/10/30 00:56:04;;;;;;;7.97;2.23;;;12.90;86.90;;;;;;726063;175;26536;-87
2023/10/30 00:58:31;;;;;;;7.13;2.70;;;13.00;86.70;;;;;;765209;185;26541;-90
2023/10/30 01:00:57;;;;;;;7.73;2.40;;;13.00;86.50;;;;;;778341;183;26490;-87
2023/10/30 01:03:24;;;;;;;7.40;2.27;;;13.00;86.70;;;;;;769209;184;26514;-88
2023/10/30 01:05:55;;;;;;;6.33;3.17;;;13.00;86.60;;;;;;769559;184;26580;-88
2023/10/30 01:08:22;;;;;;;8.67;2.40;;;13.00;86.50;;;;;;761140;188;26508;-86
2023/10/30 01:10:48;;;;;;;10.10;2.43;;;12.90;87.10;;;;;;753731;188;26599;-86
2023/10/30 01:13:15;;;;;;;9.47;2.17;;;13.00;87.00;;;;;;760554;189;26548;-87
2023/10/30 01:15:41;;;;;;;8.07;2.23;;;13.00;86.40;;;;;;738603;191;26561;-87
2023/10/30 01:18:08;;;;;;;11.07;2.40;;;12.90;86.80;;;;;;737774;192;27165;-89
2023/10/30 01:20:38;;;;;;;41.33;20.07;;;12.90;86.90;;;;;;734624;194;26607;-87
2023/10/30 01:23:04;;;;;;;90.63;41.70;;;12.90;87.20;;;;;;750339;190;26919;-90
2023/10/30 01:25:31;;;;;;;12.83;4.37;;;12.90;87.40;;;;;;758501;186;26519;-88
2023/10/30 01:27:57;;;;;;;11.13;2.93;;;12.90;87.40;;;;;;755387;188;26506;-87
2023/10/30 01:30:24;;;;;;;9.17;2.50;;;12.90;88.30;;;;;;746792;189;26491;-87
2023/10/30 01:32:51;;;;;;;8.30;2.50;;;12.90;87.70;;;;;;752232;188;26528;-87
2023/10/30 01:35:17;;;;;;;9.80;2.30;;;12.90;87.60;;;;;;754985;188;26537;-90
2023/10/30 01:37:44;;;;;;;12.43;2.83;;;12.90;87.40;;;;;;756789;188;26627;-87
2023/10/30 01:40:11;;;;;;;8.10;2.40;;;12.90;87.60;;;;;;757543;187;26513;-89
2023/10/30 01:42:37;;;;;;;8.23;2.70;;;12.90;87.20;;;;;;754795;187;26532;-86
2023/10/30 01:45:04;;;;;;;7.47;2.13;;;12.90;86.90;;;;;;758757;186;26526;-89
2023/10/30 01:47:31;;;;;;;9.30;2.30;;;12.90;88.00;;;;;;753534;187;26505;-88
2023/10/30 01:49:57;;;;;;;9.23;2.33;;;12.90;87.50;;;;;;758689;184;26517;-91
2023/10/30 01:52:24;;;;;;;11.97;3.30;;;12.90;87.50;;;;;;756412;188;26990;-90
2023/10/30 01:54:51;;;;;;;10.07;2.67;;;13.00;86.90;;;;;;747083;191;26474;-89
2023/10/30 01:57:18;;;;;;;9.83;2.60;;;13.00;87.20;;;;;;760043;189;26521;-88
2023/10/30 01:59:45;;;;;;;11.27;2.60;;;13.00;86.40;;;;;;750495;189;26596;-91
2023/10/30 02:02:11;;;;;;;9.87;2.57;;;13.00;86.80;;;;;;748995;190;26471;-87
2023/10/30 02:04:38;;;;;;;9.80;2.20;;;12.90;86.90;;;;;;749978;189;27012;-87
2023/10/30 02:07:04;;;;;;;9.27;2.23;;;12.90;87.00;;;;;;746094;190;26507;-87
2023/10/30 02:09:31;;;;;;;9.50;2.93;;;12.90;87.20;;;;;;745254;192;26454;-87
2023/10/30 02:11:58;;;;;;;7.70;2.50;;;13.00;87.00;;;;;;746197;190;26983;-88
2023/10/30 02:14:24;;;;;;;6.43;2.10;;;12.90;86.90;;;;;;748401;189;26469;-89
2023/10/30 02:16:51;;;;;;;9.33;2.30;;;13.00;87.30;;;;;;748690;189;26451;-87
2023/10/30 02:19:18;;;;;;;8.47;2.10;;;12.90;86.90;;;;;;747273;191;26467;-88
2023/10/30 02:21:45;;;;;;;10.53;2.30;;;13.00;87.40;;;;;;725001;198;26572;-87
2023/10/30 02:24:12;;;;;;;9.40;2.63;;;13.00;86.90;;;;;;753677;190;26466;-87
2023/10/30 02:26:38;;;;;;;9.10;2.63;;;12.90;86.70;;;;;;750058;188;26469;-89
2023/10/30 02:29:05;;;;;;;11.23;2.50;;;13.00;86.70;;;;;;737435;195;26603;-87
2023/10/30 02:31:32;;;;;;;8.13;2.53;;;13.00;86.60;;;;;;747244;191;26738;-87
2023/10/30 02:34:00;;;;;;;10.07;2.83;;;12.90;86.70;;;;;;752292;187;26583;-87
2023/10/30 02:36:27;;;;;;;9.83;3.00;;;13.00;86.70;;;;;;750013;190;26536;-87
2023/10/30 02:38:53;;;;;;;9.10;2.43;;;12.90;86.70;;;;;;751911;190;27129;-87
2023/10/30 02:41:20;;;;;;;9.10;2.37;;;12.90;87.40;;;;;;750381;190;26652;-87
2023/10/30 02:43:46;;;;;;;10.47;2.40;;;12.90;87.60;;;;;;750924;189;26614;-88
2023/10/30 02:46:13;;;;;;;10.70;2.37;;;12.90;87.90;;;;;;752957;190;26533;-89
2023/10/30 02:48:40;;;;;;;10.47;2.93;;;12.90;87.50;;;;;;752053;188;26531;-89
2023/10/30 02:51:06;;;;;;;9.93;2.47;;;12.90;87.30;;;;;;752623;191;27108;-88
2023/10/30 02:53:33;;;;;;;10.20;2.23;;;12.90;86.80;;;;;;752739;191;26536;-87
2023/10/30 02:55:59;;;;;;;6.97;2.40;;;12.90;86.80;;;;;;750421;188;27117;-88
2023/10/30 02:58:26;;;;;;;9.47;2.20;;;12.90;87.20;;;;;;752124;188;26576;-87
2023/10/30 03:00:55;;;;;;;6.30;2.27;;;12.80;87.10;;;;;;752796;188;26590;-88
2023/10/30 03:03:21;;;;;;;11.13;2.50;;;12.80;87.10;;;;;;751804;188;27066;-91
2023/10/30 03:05:51;;;;;;;5.87;2.23;;;12.80;87.90;;;;;;749915;188;26611;-87
2023/10/30 03:08:18;;;;;;;10.90;2.83;;;12.90;87.00;;;;;;749487;191;26571;-87
2023/10/30 03:10:45;;;;;;;8.07;2.33;;;12.90;87.30;;;;;;751495;190;26583;-88
2023/10/30 03:13:12;;;;;;;8.33;2.13;;;12.80;87.10;;;;;;749633;188;27118;-87
2023/10/30 03:15:38;;;;;;;7.47;2.40;;;12.90;87.90;;;;;;749659;187;26590;-87
2023/10/30 03:18:05;;;;;;;11.03;2.27;;;12.80;87.50;;;;;;749886;189;27147;-87
2023/10/30 03:20:31;;;;;;;7.43;2.30;;;12.80;87.20;;;;;;749526;191;26545;-90
2023/10/30 03:22:58;;;;;;;15.73;2.87;;;12.80;87.10;;;;;;750865;189;27108;-88
2023/10/30 03:25:25;;;;;;;9.60;2.53;;;12.90;87.60;;;;;;751687;190;26639;-88
2023/10/30 03:27:51;;;;;;;11.37;3.20;;;12.90;87.30;;;;;;753012;190;26532;-87
2023/10/30 03:30:18;;;;;;;8.00;2.20;;;12.90;87.20;;;;;;754541;190;26502;-87
2023/10/30 03:32:44;;;;;;;8.57;2.77;;;12.90;87.50;;;;;;751573;190;26521;-88
2023/10/30 03:35:11;;;;;;;10.47;2.47;;;12.90;87.60;;;;;;751318;190;26546;-89
2023/10/30 03:37:38;;;;;;;11.77;2.80;;;12.90;87.40;;;;;;751626;188;26558;-87
2023/10/30 03:40:04;;;;;;;10.80;2.13;;;12.90;87.20;;;;;;751134;191;27084;-87
2023/10/30 03:42:31;;;;;;;8.57;2.33;;;12.90;87.40;;;;;;751164;191;26523;-90
2023/10/30 03:44:58;;;;;;;8.63;2.87;;;12.90;87.80;;;;;;750771;190;26542;-87
2023/10/30 03:47:24;;;;;;;9.97;2.60;;;12.80;87.60;;;;;;751075;191;26562;-91
2023/10/30 03:49:51;;;;;;;8.47;2.20;;;12.80;88.30;;;;;;751749;188;26563;-92
2023/10/30 03:52:17;;;;;;;10.73;2.43;;;12.80;88.00;;;;;;752684;190;26530;-90
2023/10/30 03:54:44;;;;;;;9.73;2.20;;;12.80;88.60;;;;;;750556;188;26560;-88
2023/10/30 03:57:11;;;;;;;9.53;2.90;;;12.70;88.60;;;;;;752515;190;26552;-88
2023/10/30 03:59:37;;;;;;;7.73;2.60;;;12.70;88.60;;;;;;750940;191;26552;-88
2023/10/30 04:02:04;;;;;;;10.20;2.60;;;12.70;88.90;;;;;;751883;190;26520;-88
2023/10/30 04:04:31;;;;;;;9.60;2.30;;;12.60;88.70;;;;;;752182;189;26532;-92
2023/10/30 04:06:58;;;;;;;9.13;2.57;;;12.70;89.40;;;;;;754231;189;26551;-87
2023/10/30 04:09:32;;;;;;;10.30;2.27;;;12.70;88.60;;;;;;754219;191;26520;-87
2023/10/30 04:12:02;;;;;;;7.00;2.60;;;12.70;88.80;;;;;;751482;190;26574;-88
2023/10/30 04:14:26;;;;;;;10.80;2.70;;;12.60;88.60;;;;;;751671;188;26536;-89
2023/10/30 04:16:52;;;;;;;9.30;2.40;;;12.70;89.50;;;;;;750819;192;26537;-88
2023/10/30 04:19:19;;;;;;;10.83;2.33;;;12.60;88.40;;;;;;750436;189;27060;-89
2023/10/30 04:21:45;;;;;;;9.67;2.17;;;12.70;89.60;;;;;;750164;191;26566;-90
2023/10/30 04:24:12;;;;;;;6.63;2.07;;;12.70;89.20;;;;;;750630;190;27065;-88
2023/10/30 04:26:39;;;;;;;8.87;2.57;;;12.60;88.80;;;;;;753744;187;26567;-88
2023/10/30 04:29:08;;;;;;;5.70;2.10;;;12.60;89.20;;;;;;753482;190;26547;-88
2023/10/30 04:31:35;;;;;;;5.67;2.27;;;12.60;89.00;;;;;;754056;191;27077;-89
2023/10/30 04:34:08;;;;;;;9.13;2.90;;;12.60;89.00;;;;;;752142;189;26523;-88
2023/10/30 04:36:35;;;;;;;9.20;2.17;;;12.60;89.20;;;;;;755219;188;28172;-90
2023/10/30 04:39:01;;;;;;;11.47;2.83;;;12.60;89.70;;;;;;756074;187;26531;-88
2023/10/30 04:41:28;;;;;;;9.33;3.03;;;12.60;89.60;;;;;;752458;187;26553;-88
2023/10/30 04:43:54;;;;;;;7.63;2.37;;;12.60;89.10;;;;;;752350;187;27104;-88
2023/10/30 04:46:21;;;;;;;8.70;2.60;;;12.60;89.20;;;;;;751989;191;26540;-88
2023/10/30 04:48:48;;;;;;;9.23;2.37;;;12.60;88.60;;;;;;753138;190;27102;-87
2023/10/30 04:51:14;;;;;;;6.87;2.10;;;12.60;88.50;;;;;;751601;188;26528;-89
2023/10/30 04:53:41;;;;;;;8.80;3.13;;;12.60;88.90;;;;;;750926;188;28133;-87
2023/10/30 04:56:07;;;;;;;9.27;2.53;;;12.60;88.70;;;;;;751356;188;26574;-90
2023/10/30 04:58:34;;;;;;;7.23;2.43;;;12.60;89.00;;;;;;751223;191;27058;-88
2023/10/30 05:01:01;;;;;;;6.93;2.10;;;12.60;88.50;;;;;;750962;188;26523;-87
2023/10/30 05:03:27;;;;;;;9.90;2.63;;;12.60;88.50;;;;;;750647;190;26611;-88
2023/10/30 05:05:54;;;;;;;7.17;2.23;;;12.60;88.10;;;;;;750844;191;26530;-87
2023/10/30 05:08:21;;;;;;;9.30;2.83;;;12.60;87.80;;;;;;750453;192;26539;-88
2023/10/30 05:10:47;;;;;;;7.23;2.40;;;12.60;88.40;;;;;;750334;191;27081;-88
2023/10/30 05:13:14;;;;;;;8.57;2.20;;;12.70;88.10;;;;;;749866;190;26544;-88
2023/10/30 05:15:40;;;;;;;6.50;2.00;;;12.70;88.30;;;;;;753346;190;26545;-88
2023/10/30 05:18:07;;;;;;;7.67;2.40;;;12.70;88.00;;;;;;750947;189;26536;-88
2023/10/30 05:20:33;;;;;;;9.10;2.80;;;12.70;87.60;;;;;;750986;188;27095;-88
2023/10/30 05:23:00;;;;;;;8.53;2.20;;;12.70;88.00;;;;;;752400;187;26532;-88
2023/10/30 05:25:27;;;;;;;10.60;3.00;;;12.70;89.10;;;;;;753260;188;27091;-88
2023/10/30 05:27:53;;;;;;;9.27;2.37;;;12.60;88.80;;;;;;752465;191;26569;-90
2023/10/30 05:30:20;;;;;;;10.07;2.60;;;12.60;89.10;;;;;;753978;190;27127;-88
2023/10/30 05:32:46;;;;;;;7.63;2.63;;;12.60;89.50;;;;;;752182;188;26581;-88
2023/10/30 05:35:13;;;;;;;8.83;2.50;;;12.60;89.40;;;;;;753587;190;26548;-88
2023/10/30 05:37:40;;;;;;;8.07;2.57;;;12.50;89.50;;;;;;753432;190;26557;-87
2023/10/30 05:40:07;;;;;;;7.30;2.30;;;12.50;89.80;;;;;;751870;190;26516;-87
2023/10/30 05:42:34;;;;;;;10.90;2.90;;;12.50;89.30;;;;;;753755;187;26536;-87
2023/10/30 05:45:00;;;;;;;9.63;2.47;;;12.50;90.00;;;;;;753805;190;26586;-89
2023/10/30 05:47:27;;;;;;;8.80;2.87;;;12.50;89.80;;;;;;753874;188;26550;-88
2023/10/30 05:49:53;;;;;;;6.67;2.43;;;12.50;90.30;;;;;;753315;190;26545;-90
2023/10/30 05:52:24;;;;;;;8.67;2.30;;;12.40;90.30;;;;;;753186;190;26578;-88
2023/10/30 05:54:50;;;;;;;9.90;3.00;;;12.40;90.30;;;;;;752558;188;26535;-87
2023/10/30 05:57:17;;;;;;;10.47;2.77;;;12.40;90.60;;;;;;752244;188;26562;-87
2023/10/30 05:59:43;;;;;;;8.37;2.70;;;12.40;90.70;;;;;;752010;188;26550;-88
2023/10/30 06:02:10;;;;;;;12.20;2.83;;;12.30;90.80;;;;;;753332;190;26568;-88
2023/10/30 06:04:37;;;;;;;10.03;2.63;;;12.30;90.80;;;;;;752413;190;26572;-88
2023/10/30 06:07:03;;;;;;;10.93;2.80;;;12.30;90.90;;;;;;751182;187;26548;-86
2023/10/30 06:09:30;;;;;;;8.57;2.67;;;12.20;90.70;;;;;;752266;190;27071;-89
2023/10/30 06:11:56;;;;;;;11.33;2.93;;;12.20;90.90;;;;;;752555;190;26541;-89
2023/10/30 06:14:23;;;;;;;7.97;2.90;;;12.30;91.00;;;;;;751284;191;26583;-88
2023/10/30 06:16:50;;;;;;;9.63;3.10;;;12.30;90.90;;;;;;751145;189;26556;-87
2023/10/30 06:19:16;;;;;;;9.93;3.20;;;12.20;91.00;;;;;;752367;190;26646;-87
2023/10/30 06:21:43;;;;;;;12.57;3.47;;;12.30;91.10;;;;;;753075;190;26544;-88
2023/10/30 06:24:32;;;;;;;12.33;2.97;;;12.30;91.00;;;;;;751529;190;27155;-87
2023/10/30 06:27:03;;;;;;;10.10;3.27;;;12.30;91.20;;;;;;749856;191;27159;-88
2023/10/30 06:29:29;;;;;;;9.00;2.97;;;12.20;91.20;;;;;;751905;191;26590;-86
2023/10/30 06:32:07;;;;;;;8.83;2.90;;;12.20;91.40;;;;;;751667;187;26546;-87
2023/10/30 06:34:41;;;;;;;11.17;2.97;;;12.20;91.40;;;;;;750816;190;26574;-87
2023/10/30 06:37:15;;;;;;;12.80;2.83;;;12.20;91.40;;;;;;751991;190;26513;-88
2023/10/30 06:39:48;;;;;;;10.90;2.67;;;12.20;91.40;;;;;;753937;190;26610;-89
2023/10/30 06:42:18;;;;;;;7.90;2.97;;;12.20;91.30;;;;;;754691;190;26512;-87
2023/10/30 06:44:49;;;;;;;7.67;2.90;;;12.20;91.30;;;;;;754157;190;26564;-88
2023/10/30 06:47:18;;;;;;;6.97;2.77;;;12.10;91.50;;;;;;751045;190;26540;-88
2023/10/30 06:49:45;;;;;;;8.47;3.17;;;12.10;91.60;;;;;;752151;190;26508;-87
2023/10/30 06:52:12;;;;;;;15.30;3.20;;;12.10;91.60;;;;;;750878;188;26517;-88
2023/10/30 06:54:40;;;;;;;11.60;3.30;;;12.10;91.70;;;;;;751605;190;26688;-90
2023/10/30 07:11:06;;;;;;;10.20;3.23;;;12.30;91.40;;;;;;724926;181;26546;-87
2023/10/30 07:14:05;;;;;;;;;;;;;;;;;;;;;
2023/10/30 07:16:52;;;;;;;13.83;3.93;;;12.20;91.50;;;;;;784632;177;26583;-86
2023/10/30 07:19:22;;;;;;;10.57;4.20;;;12.30;91.80;;;;;;798077;177;26480;-86
2023/10/30 07:21:48;;;;;;;9.97;3.40;;;12.30;91.60;;;;;;796034;178;26434;-88
2023/10/30 07:24:18;;;;;;;8.83;4.00;;;12.40;91.60;;;;;;799123;179;26465;-86
2023/10/30 07:26:58;;;;;;;8.67;3.50;;;12.40;91.20;;;;;;798869;176;26480;-86
2023/10/30 07:29:27;;;;;;;12.33;3.80;;;12.40;91.20;;;;;;794282;179;26434;-91
2023/10/30 07:31:55;;;;;;;13.77;4.13;;;12.40;91.20;;;;;;786152;178;27065;-88
2023/10/30 08:54:27;;;;;;;6.17;3.40;;;14.90;82.80;;;;;;734338;181;26498;-87
2023/10/30 08:56:54;;;;;;;4.70;2.60;;;14.80;82.30;;;;;;787378;178;26458;-85
2023/10/30 08:59:20;;;;;;;11.17;3.03;;;14.80;82.50;;;;;;787486;178;26462;-86
2023/10/30 09:01:46;;;;;;;6.03;2.93;;;14.90;81.70;;;;;;777236;182;26510;-87
2023/10/30 09:04:14;;;;;;;4.00;2.43;;;15.00;81.20;;;;;;777260;183;26467;-85
2023/10/30 09:06:45;;;;;;;4.07;2.60;;;15.10;81.20;;;;;;781181;177;26418;-91
2023/10/30 09:09:11;;;;;;;6.47;2.60;;;15.20;81.20;;;;;;779991;185;26396;-90
2023/10/30 09:11:40;;;;;;;5.27;2.63;;;15.30;79.90;;;;;;777343;185;26458;-86
2023/10/30 09:14:09;;;;;;;5.17;2.70;;;15.30;80.10;;;;;;771259;183;26465;-89
2023/10/30 09:16:36;;;;;;;3.73;2.50;;;15.40;80.30;;;;;;767798;182;26544;-89
2023/10/30 09:19:02;;;;;;;5.67;2.30;;;15.40;79.30;;;;;;752924;188;26482;-89
2023/10/30 09:21:29;;;;;;;6.53;2.10;;;15.60;79.60;;;;;;756571;186;26463;-87
2023/10/30 09:23:56;;;;;;;5.33;2.30;;;15.60;76.90;;;;;;765633;183;26484;-87
2023/10/30 09:26:22;;;;;;;3.77;2.53;;;15.70;77.40;;;;;;771948;180;26504;-87
2023/10/30 09:28:49;;;;;;;4.97;2.40;;;15.70;77.10;;;;;;763682;183;26491;-88
2023/10/30 09:31:15;;;;;;;6.03;2.50;;;15.80;77.10;;;;;;766080;187;26489;-89
2023/10/30 09:33:49;;;;;;;3.03;2.40;;;15.70;77.60;;;;;;759666;187;26501;-89
2023/10/30 09:36:23;;;;;;;3.23;2.27;;;15.60;77.80;;;;;;757446;181;26544;-89
2023/10/30 09:38:53;;;;;;;4.17;2.37;;;15.80;78.60;;;;;;759214;182;26535;-87
2023/10/30 09:41:19;;;;;;;3.43;2.23;;;16.00;76.70;;;;;;760245;183;26568;-88
2023/10/30 09:43:50;;;;;;;7.60;2.67;;;16.00;76.10;;;;;;759136;187;26493;-88
2023/10/30 09:46:17;;;;;;;3.30;2.10;;;15.80;75.90;;;;;;756955;185;26620;-89
2023/10/30 09:48:44;;;;;;;4.27;2.13;;;15.70;76.20;;;;;;764839;183;26494;-89
2023/10/30 09:51:19;;;;;;;4.13;2.10;;;15.80;77.70;;;;;;765731;187;26498;-89
2023/10/30 09:53:46;;;;;;;3.17;2.13;;;15.70;75.80;;;;;;759545;185;26547;-89
2023/10/30 09:56:15;;;;;;;5.33;2.10;;;15.70;76.20;;;;;;756639;185;26483;-88
2023/10/30 09:58:41;;;;;;;3.80;2.17;;;15.90;75.90;;;;;;753463;187;26478;-89
2023/10/30 11:18:45;;;;;;;2.37;1.50;;;18.20;71.30;;;;;;730519;177;26484;-87
2023/10/30 11:21:19;;;;;;;4.63;1.93;;;19.00;65.80;;;;;;765265;187;26520;-87
2023/10/30 11:23:47;;;;;;;2.23;1.60;;;19.60;64.60;;;;;;775640;182;28335;-88
2023/10/30 11:26:24;;;;;;;4.33;1.70;;;19.20;64.20;;;;;;782684;182;26461;-88
2023/10/30 11:28:51;;;;;;;1.43;1.30;;;18.50;66.40;;;;;;777971;182;26456;-86
2023/10/30 11:31:17;;;;;;;2.33;1.57;;;18.30;68.30;;;;;;768661;184;26508;-86
2023/10/30 11:33:44;;;;;;;2.57;1.60;;;18.30;69.30;;;;;;779490;184;26460;-88
2023/10/30 11:36:23;;;;;;;2.03;1.30;;;18.20;67.80;;;;;;778213;184;26475;-87
2023/10/30 11:39:10;;;;;;;1.90;1.37;;;18.00;67.80;;;;;;770948;184;27864;-88
2023/10/30 11:41:36;;;;;;;1.90;1.17;;;18.20;68.80;;;;;;774010;184;26492;-85
2023/10/30 11:44:08;;;;;;;3.60;1.53;;;18.10;69.20;;;;;;779471;182;26981;-87
2023/10/30 11:46:41;;;;;;;3.43;1.30;;;17.90;69.00;;;;;;780844;183;26470;-87
2023/10/30 11:49:09;;;;;;;4.13;1.37;;;17.80;69.10;;;;;;784399;181;26457;-87
2023/10/30 11:51:35;;;;;;;3.40;1.20;;;17.50;70.40;;;;;;768935;186;26425;-87
2023/10/30 11:54:02;;;;;;;1.87;1.30;;;17.20;72.10;;;;;;773172;186;26505;-87
2023/10/30 11:56:28;;;;;;;1.90;1.50;;;17.20;71.90;;;;;;770106;186;26578;-86
2023/10/30 11:58:56;;;;;;;1.40;1.27;;;17.20;72.30;;;;;;769512;187;26609;-87
2023/10/30 12:01:22;;;;;;;1.97;1.30;;;17.20;71.70;;;;;;765164;187;26504;-87
2023/10/30 12:03:48;;;;;;;1.90;1.50;;;17.10;72.80;;;;;;763955;187;27052;-87
2023/10/30 12:06:15;;;;;;;2.37;1.40;;;17.10;72.70;;;;;;779035;184;26496;-87
2023/10/30 12:08:41;;;;;;;2.40;1.63;;;17.00;73.70;;;;;;772284;184;26966;-85
2023/10/30 12:11:08;;;;;;;3.03;1.40;;;17.00;73.10;;;;;;776499;184;26471;-88
2023/10/30 12:13:35;;;;;;;2.00;1.30;;;17.10;72.10;;;;;;765443;186;26543;-87
2023/10/30 12:16:01;;;;;;;3.80;1.67;;;17.20;72.90;;;;;;749115;191;26504;-87
2023/10/30 12:18:28;;;;;;;2.33;1.60;;;17.00;72.80;;;;;;779118;184;26450;-86
2023/10/30 12:20:56;;;;;;;3.90;1.20;;;17.10;71.80;;;;;;779438;184;26466;-87
2023/10/30 12:23:21;;;;;;;4.60;1.33;;;17.30;72.30;;;;;;771585;183;27043;-87
2023/10/30 12:25:50;;;;;;;2.37;1.57;;;17.40;71.90;;;;;;781910;184;26438;-86
2023/10/30 12:28:14;;;;;;;2.50;1.47;;;17.40;71.10;;;;;;781732;183;27044;-86
2023/10/30 12:30:41;;;;;;;5.17;2.37;;;17.30;72.30;;;;;;776878;181;26474;-86
2023/10/30 12:33:13;;;;;;;7.70;2.60;;;17.10;72.50;;;;;;781563;182;28122;-88
2023/10/30 12:35:35;;;;;;;7.00;1.77;;;16.90;73.10;;;;;;780989;182;26454;-88
2023/10/30 12:38:00;;;;;;;1.73;1.50;;;17.10;72.80;;;;;;781390;183;26501;-87
2023/10/30 12:40:27;;;;;;;1.43;1.20;;;16.90;73.80;;;;;;779744;183;26452;-86
2023/10/30 12:42:54;;;;;;;5.07;1.50;;;16.90;73.10;;;;;;778724;180;26482;-88
2023/10/30 12:45:20;;;;;;;6.93;2.23;;;16.90;74.20;;;;;;781076;183;26536;-87
2023/10/30 12:47:48;;;;;;;19.47;3.97;;;16.70;74.20;;;;;;780585;183;26500;-87
2023/10/30 12:50:14;;;;;;;5.50;1.83;;;16.70;73.40;;;;;;778551;181;26484;-87
2023/10/30 12:52:42;;;;;;;2.80;1.47;;;16.80;74.10;;;;;;778594;184;26505;-87
2023/10/30 12:55:08;;;;;;;1.67;1.23;;;16.80;73.60;;;;;;780115;183;26485;-87
2023/10/30 12:57:36;;;;;;;1.47;1.10;;;16.80;74.80;;;;;;783574;180;26465;-87
2023/10/30 13:00:01;;;;;;;2.00;1.23;;;16.80;73.90;;;;;;778693;184;26473;-87
2023/10/30 13:02:27;;;;;;;1.77;1.40;;;16.90;74.20;;;;;;778686;185;26626;-85
2023/10/30 13:04:54;;;;;;;3.73;1.40;;;16.90;73.40;;;;;;778553;184;26472;-87
2023/10/30 13:07:47;;;;;;;2.57;1.10;;;17.00;74.40;;;;;;780578;180;26536;-86
2023/10/30 13:10:27;;;;;;;1.40;1.20;;;17.10;72.70;;;;;;783166;180;26455;-86
2023/10/30 13:15:43;;;;;;;4.07;1.60;;;17.10;72.90;;;;;;792503;179;26522;-87
2023/10/30 13:18:10;;;;;;;1.63;1.30;;;17.10;72.60;;;;;;791359;181;26482;-86
2023/10/30 13:21:00;;;;;;;;;;;;;;;;;;;;;
2023/10/30 13:23:33;;;;;;;3.03;1.50;;;16.80;73.00;;;;;;759512;186;26489;-87
2023/10/30 13:26:21;;;;;;;;;;;;;;;;;;;;;
2023/10/30 13:28:51;;;;;;;3.27;1.60;;;16.70;74.70;;;;;;749397;191;26504;-85
2023/10/30 13:31:22;;;;;;;3.07;1.50;;;16.70;74.70;;;;;;754685;181;26551;-86
2023/10/30 13:33:51;;;;;;;2.57;1.10;;;16.60;74.50;;;;;;772043;184;26533;-85
2023/10/30 13:36:17;;;;;;;1.60;1.30;;;16.60;75.20;;;;;;771331;184;26473;-86
2023/10/30 13:38:53;;;;;;;3.67;1.53;;;16.60;73.90;;;;;;778884;184;26472;-85
2023/10/30 13:44:17;;;;;;;3.30;1.50;;;16.50;75.10;;;;;;784076;180;26431;-85
2023/10/30 13:47:01;;;;;;;1.43;1.33;;;16.50;75.00;;;;;;784713;183;26512;-86
2023/10/30 13:52:03;;;;;;;2.50;1.20;;;16.40;75.60;;;;;;765789;180;26577;-84
2023/10/30 13:54:54;;;;;;;2.13;1.40;;;16.40;76.40;;;;;;777443;182;26479;-85
2023/10/30 13:57:28;;;;;;;2.00;1.10;;;16.30;75.70;;;;;;773666;185;26490;-85
2023/10/30 14:00:05;;;;;;;2.20;1.37;;;16.30;76.70;;;;;;773918;185;26488;-85
2023/10/30 14:55:02;;;;;;;3.20;1.50;;;15.80;80.90;;;;;;782628;183;26454;-89
2023/10/30 14:57:42;;;;;;;2.70;1.70;;;15.70;81.40;;;;;;783269;183;27049;-88
2023/10/30 15:00:28;;;;;;;3.07;1.63;;;15.70;81.50;;;;;;770267;185;26990;-86
2023/10/30 15:02:55;;;;;;;4.37;1.60;;;15.70;82.50;;;;;;763748;185;27090;-86
2023/10/30 15:05:28;;;;;;;3.10;1.60;;;15.60;83.00;;;;;;768571;186;26470;-86
2023/10/30 15:07:57;;;;;;;5.57;1.97;;;15.60;85.50;;;;;;768107;183;26476;-86
2023/10/30 15:10:35;;;;;;;3.23;1.97;;;15.50;86.70;;;;;;762205;186;27039;-87
2023/10/30 15:13:14;;;;;;;4.90;1.70;;;15.40;86.90;;;;;;767126;186;26472;-84
2023/10/30 15:21:19;;;;;;;3.20;1.70;;;15.10;88.50;;;;;;769851;186;26515;-88
2023/10/30 15:32:06;;;;;;;3.53;1.83;;;15.00;89.70;;;;;;722385;180;26528;-89
2023/10/30 15:37:19;;;;;;;9.33;2.90;;;14.80;90.90;;;;;;771796;185;26435;-88
2023/10/30 15:42:36;;;;;;;6.73;2.70;;;14.50;92.70;;;;;;704456;183;26528;-88
2023/10/30 15:45:10;;;;;;;5.77;2.10;;;14.40;93.10;;;;;;763835;184;26538;-91
2023/10/30 15:47:45;;;;;;;4.57;1.87;;;14.30;93.70;;;;;;763976;187;26505;-88
2023/10/30 15:50:15;;;;;;;6.40;1.90;;;14.30;94.00;;;;;;745129;189;26564;-89
2023/10/30 15:52:42;;;;;;;4.30;2.10;;;14.20;93.60;;;;;;750178;191;27043;-89
2023/10/30 15:55:12;;;;;;;4.37;2.67;;;14.10;94.30;;;;;;759708;185;26489;-89
2023/10/30 15:57:46;;;;;;;6.03;2.63;;;14.10;94.50;;;;;;750302;187;26526;-89
2023/10/30 16:00:16;;;;;;;12.23;2.50;;;14.00;94.90;;;;;;755011;189;26587;-90
2023/10/30 16:02:43;;;;;;;7.37;2.77;;;14.00;95.00;;;;;;752066;187;26533;-87
2023/10/30 16:05:19;;;;;;;9.17;3.40;;;13.90;95.20;;;;;;746465;191;26527;-84
2023/10/30 16:07:48;;;;;;;11.57;3.70;;;13.90;95.30;;;;;;752825;190;26541;-86
2023/10/30 16:10:34;;;;;;;8.10;3.80;;;13.90;95.40;;;;;;748069;186;27080;-84
2023/10/30 16:13:07;;;;;;;8.60;2.43;;;13.90;95.80;;;;;;746093;192;26518;-85
2023/10/30 16:15:46;;;;;;;13.10;3.80;;;13.90;95.90;;;;;;740829;192;27074;-82
2023/10/30 16:18:13;;;;;;;6.07;3.47;;;13.80;96.10;;;;;;749908;189;26533;-85
2023/10/30 16:20:42;;;;;;;7.90;3.33;;;13.80;96.40;;;;;;755708;189;28091;-88
2023/10/30 16:23:17;;;;;;;5.93;2.57;;;13.80;96.60;;;;;;751402;190;26593;-85
2023/10/30 16:25:43;;;;;;;6.23;2.83;;;13.80;97.00;;;;;;750505;190;26502;-90
2023/10/30 16:28:10;;;;;;;5.43;3.77;;;13.70;96.70;;;;;;746018;191;26562;-88
2023/10/30 16:30:46;;;;;;;8.43;4.53;;;13.70;96.80;;;;;;745667;191;26524;-86
2023/10/30 16:33:17;;;;;;;7.87;3.40;;;13.70;97.00;;;;;;750395;190;26511;-86
2023/10/30 16:35:47;;;;;;;9.00;3.60;;;13.70;97.40;;;;;;749041;190;26574;-87
2023/10/30 16:38:27;;;;;;;5.43;3.43;;;13.70;97.40;;;;;;754334;181;26555;31
2023/10/30 16:43:48;;;;;;;7.23;4.27;;;13.70;97.50;;;;;;761543;186;26459;-88
2023/10/30 16:46:22;;;;;;;9.20;4.70;;;13.70;97.70;;;;;;760932;186;26494;-89
2023/10/30 16:48:49;;;;;;;7.20;4.00;;;13.70;97.70;;;;;;767413;187;26509;-88
2023/10/30 16:51:16;;;;;;;7.00;4.03;;;13.70;97.80;;;;;;768981;184;27227;-91
2023/10/30 16:53:43;;;;;;;7.87;3.90;;;13.60;97.70;;;;;;769657;184;27120;-87
2023/10/30 16:56:10;;;;;;;5.50;4.50;;;13.60;97.70;;;;;;769803;183;26500;-88
2023/10/30 16:58:37;;;;;;;8.73;4.13;;;13.70;98.10;;;;;;771258;183;26563;-89
2023/10/30 17:01:12;;;;;;;5.00;3.97;;;13.60;98.00;;;;;;772563;183;26483;-85
2023/10/30 17:03:45;;;;;;;5.13;3.80;;;13.60;98.10;;;;;;771397;186;26474;-86
2023/10/30 17:10:00;;;;;;;;;;;;;;;;;;;;;
2023/10/30 17:12:29;;;;;;;8.67;5.17;;;13.60;98.10;;;;;;753650;187;28157;-90
2023/10/30 17:15:19;;;;;;;7.67;4.33;;;13.60;98.10;;;;;;754240;189;26654;-86
2023/10/30 17:18:03;;;;;;;5.70;3.93;;;13.60;98.10;;;;;;765145;184;26525;-88
2023/10/30 17:20:40;;;;;;;5.93;4.00;;;13.50;97.90;;;;;;770767;186;27129;-88
2023/10/30 17:23:22;;;;;;;5.97;4.07;;;13.50;98.00;;;;;;770726;183;26507;-87
2023/10/30 17:28:35;;;;;;;7.23;4.40;;;13.50;98.10;;;;;;771142;183;26473;-89
2023/10/30 17:31:04;;;;;;;9.13;5.77;;;13.50;97.90;;;;;;769430;186;26509;-93
2023/10/30 17:33:40;;;;;;;7.60;5.17;;;13.50;98.00;;;;;;770487;184;26547;-94
2023/10/30 17:36:08;;;;;;;6.60;5.90;;;13.50;98.00;;;;;;772132;184;26522;-88
2023/10/30 17:41:27;;;;;;;8.47;5.70;;;13.50;98.10;;;;;;709203;186;26534;-85
2023/10/30 17:44:02;;;;;;;9.43;6.50;;;13.50;98.10;;;;;;753392;186;26556;-85
2023/10/30 17:46:41;;;;;;;6.00;5.30;;;13.50;98.30;;;;;;755361;189;26552;-87
2023/10/30 17:57:41;;;;;;;;;;;;;;;;;;;;;
2023/10/30 18:00:19;;;;;;;11.87;9.27;;;13.50;98.40;;;;;;769516;184;26538;-89
2023/10/30 18:02:53;;;;;;;14.03;8.90;;;13.50;98.30;;;;;;775391;182;26492;-85
2023/10/30 18:13:44;;;;;;;9.83;8.00;;;13.50;98.30;;;;;;742320;177;27122;-91
2023/10/30 18:16:11;;;;;;;11.17;8.37;;;13.40;98.20;;;;;;795691;178;26479;-91
2023/10/30 18:18:38;;;;;;;10.27;8.27;;;13.40;98.30;;;;;;779774;183;26473;-92